Time;durP1;ratioP1;P1;durP2;ratioP2;P2;SDS_P1;SDS_P2;PMS_P1;PMS_P2;Temp;Humidity;BMP_temperature;BMP_pressure;BME280_temperature;BME280_humidity;BME280_pressure;Samples;Min_cycle;Max_cycle;Signal;HPM_P1;HPM_P2
2023/12/12 00:02:12;;;;;;;0.93;0.22;;;;;;;7.32;100.00;100943.19;5093329;27;96531;-27
2023/12/12 00:04:37;;;;;;;0.90;0.40;;;;;;;7.28;100.00;100935.31;5093469;27;96788;-27
2023/12/12 00:07:03;;;;;;;0.82;0.30;;;;;;;7.29;100.00;100942.44;5093119;27;99298;-28
2023/12/12 00:09:28;;;;;;;1.25;0.57;;;;;;;7.25;100.00;100935.47;5093796;27;97406;-27
2023/12/12 00:11:54;;;;;;;0.20;0.20;;;;;;;7.20;100.00;100932.97;5093501;27;96515;-27
2023/12/12 00:14:20;;;;;;;0.82;0.45;;;;;;;7.16;100.00;100934.94;5093472;27;96764;-29
2023/12/12 00:16:45;;;;;;;0.65;0.20;;;;;;;7.13;100.00;100932.38;5092734;27;97130;-27
2023/12/12 00:19:10;;;;;;;0.45;0.30;;;;;;;7.16;100.00;100944.84;5093501;27;97098;-28
2023/12/12 00:21:36;;;;;;;0.40;0.30;;;;;;;7.12;100.00;100944.09;5093127;27;101898;-27
2023/12/12 00:24:01;;;;;;;0.05;0.05;;;;;;;7.06;100.00;100946.22;5093382;27;96865;-27
2023/12/12 00:26:26;;;;;;;0.45;0.38;;;;;;;7.04;100.00;100940.00;5092816;27;97927;-28
2023/12/12 00:28:51;;;;;;;6.15;0.20;;;;;;;7.03;100.00;100941.81;5092970;27;99272;-28
2023/12/12 00:31:17;;;;;;;0.17;0.17;;;;;;;7.01;100.00;100946.41;5093379;27;96470;-27
2023/12/12 00:33:42;;;;;;;0.55;0.25;;;;;;;6.93;100.00;100941.34;5093460;27;96879;-27
2023/12/12 00:36:08;;;;;;;0.43;0.20;;;;;;;6.91;100.00;100937.88;5093079;27;98137;-27
2023/12/12 00:38:33;;;;;;;0.25;0.25;;;;;;;6.87;100.00;100927.31;5074191;27;101241;-27
2023/12/12 00:40:58;;;;;;;3.38;0.45;;;;;;;6.87;100.00;100936.25;5092556;27;96558;-26
2023/12/12 00:43:24;;;;;;;1.45;0.40;;;;;;;6.82;100.00;100927.50;5093241;27;96849;-27
2023/12/12 00:45:50;;;;;;;0.03;0.03;;;;;;;6.80;100.00;100926.69;5092928;27;97426;-27
2023/12/12 00:48:17;;;;;;;0.00;0.00;;;;;;;6.80;100.00;100927.56;5092895;27;97387;-27
2023/12/12 00:50:43;;;;;;;0.38;0.30;;;;;;;6.71;100.00;100911.81;5074164;27;96778;-27
2023/12/12 00:53:08;;;;;;;0.55;0.35;;;;;;;6.79;100.00;100925.84;5092904;27;96827;-27
2023/12/12 00:55:33;;;;;;;0.10;0.10;;;;;;;6.76;100.00;100919.69;5092545;27;99056;-27
2023/12/12 00:57:59;;;;;;;1.23;0.47;;;;;;;6.79;100.00;100920.44;5093075;27;104207;-27
2023/12/12 01:00:24;;;;;;;0.40;0.20;;;;;;;6.80;100.00;100922.19;5092873;27;96449;-27
2023/12/12 01:02:50;;;;;;;0.45;0.40;;;;;;;6.83;100.00;100915.78;5092540;27;96814;-28
2023/12/12 01:05:15;;;;;;;0.88;0.47;;;;;;;6.85;100.00;100919.28;5093428;27;97412;-27
2023/12/12 01:07:40;;;;;;;0.65;0.38;;;;;;;6.81;100.00;100909.59;5095651;27;99325;-26
2023/12/12 01:10:06;;;;;;;0.25;0.13;;;;;;;6.80;100.00;100897.09;5096377;27;96656;-28
2023/12/12 01:12:31;;;;;;;0.75;0.40;;;;;;;6.80;100.00;100900.66;5096046;27;96848;-28
2023/12/12 01:14:58;;;;;;;1.73;0.57;;;;;;;6.84;100.00;100901.41;5096080;27;97426;-27
2023/12/12 01:17:27;;;;;;;0.95;0.32;;;;;;;6.80;100.00;100900.66;5096077;27;96929;-27
2023/12/12 01:19:53;;;;;;;1.15;0.73;;;;;;;6.79;100.00;100903.41;5077507;27;96620;-27
2023/12/12 01:22:18;;;;;;;0.35;0.28;;;;;;;6.76;100.00;100906.25;5077682;27;96699;-27
2023/12/12 01:24:43;;;;;;;2.22;0.98;;;;;;;6.70;100.00;100885.88;5095770;27;106660;-28
2023/12/12 01:27:09;;;;;;;1.88;0.63;;;;;;;6.70;100.00;100895.75;5095747;27;97268;-29
2023/12/12 01:29:35;;;;;;;0.90;0.57;;;;;;;6.63;100.00;100889.78;5095537;27;96721;-28
2023/12/12 01:32:01;;;;;;;0.57;0.38;;;;;;;6.61;100.00;100886.28;5077110;27;97734;-29
2023/12/12 01:34:26;;;;;;;2.03;0.82;;;;;;;6.58;100.00;100881.03;5077039;27;100709;-27
2023/12/12 01:36:52;;;;;;;1.67;0.93;;;;;;;6.54;100.00;100885.66;5095980;27;97303;-27
2023/12/12 01:39:17;;;;;;;0.65;0.47;;;;;;;6.54;100.00;100888.34;5095865;27;96870;-27
2023/12/12 01:41:46;;;;;;;2.30;0.95;;;;;;;6.50;100.00;100883.19;5095758;27;96866;-27
2023/12/12 01:44:11;;;;;;;0.15;0.15;;;;;;;6.37;100.00;100870.28;5076825;27;101049;-27
2023/12/12 01:46:37;;;;;;;0.93;0.80;;;;;;;6.44;100.00;100881.63;5095820;27;99036;-27
2023/12/12 01:49:03;;;;;;;1.13;0.65;;;;;;;6.40;100.00;100880.00;5077109;27;96449;-27
2023/12/12 01:51:29;;;;;;;0.57;0.55;;;;;;;6.40;100.00;100881.84;5094948;27;96957;-27
2023/12/12 01:53:55;;;;;;;0.10;0.10;;;;;;;6.36;100.00;100887.38;5076312;27;101121;-27
2023/12/12 01:56:21;;;;;;;0.63;0.52;;;;;;;6.30;100.00;100879.53;5094853;27;97780;-27
2023/12/12 01:58:50;;;;;;;0.45;0.45;;;;;;;6.31;100.00;100875.91;5095562;27;96600;-27
2023/12/12 02:01:16;;;;;;;0.52;0.47;;;;;;;6.31;100.00;100886.66;5076700;27;96783;-27
2023/12/12 02:03:42;;;;;;;1.08;0.50;;;;;;;6.31;100.00;100886.66;5076599;27;101303;-28
2023/12/12 02:06:09;;;;;;;0.70;0.70;;;;;;;6.22;100.00;100878.13;5076659;27;100819;-27
2023/12/12 02:08:35;;;;;;;0.50;0.47;;;;;;;6.26;100.00;100877.91;5076694;27;96613;-27
2023/12/12 02:11:00;;;;;;;0.57;0.47;;;;;;;6.20;100.00;100880.00;5095430;27;96840;-27
2023/12/12 02:13:26;;;;;;;1.15;0.82;;;;;;;6.25;100.00;100886.06;5076290;27;99917;-27
2023/12/12 02:15:51;;;;;;;0.80;0.70;;;;;;;6.19;100.00;100879.13;5094704;27;97760;-27
2023/12/12 02:18:17;;;;;;;1.45;1.23;;;;;;;6.19;100.00;100878.25;5094515;27;96538;-27
2023/12/12 02:20:43;;;;;;;11.32;1.15;;;;;;;6.14;100.00;100881.13;5095240;27;96732;-27
2023/12/12 02:23:09;;;;;;;1.98;1.10;;;;;;;6.15;100.00;100885.59;5076506;27;101005;-27
2023/12/12 02:25:35;;;;;;;1.05;0.60;;;;;;;6.19;100.00;100889.88;5076264;27;99346;-27
2023/12/12 02:28:01;;;;;;;1.20;1.02;;;;;;;6.21;100.00;100889.81;5076001;27;96618;-27
2023/12/12 02:30:26;;;;;;;5.68;1.85;;;;;;;6.16;100.00;100880.13;5095026;27;96817;-27
2023/12/12 02:32:51;;;;;;;3.47;1.33;;;;;;;6.17;100.00;100878.31;5094947;27;98240;-28
2023/12/12 02:35:16;;;;;;;6.80;1.48;;;;;;;6.17;100.00;100870.25;5094903;27;100928;-27
2023/12/12 02:37:42;;;;;;;3.42;1.15;;;;;;;6.20;100.00;100872.81;5094941;27;96624;-27
2023/12/12 02:40:08;;;;;;;1.67;1.15;;;;;;;6.19;100.00;100863.00;5095057;27;96781;-27
2023/12/12 02:42:34;;;;;;;6.38;1.05;;;;;;;6.15;100.00;100864.09;5075483;27;101096;-28
2023/12/12 02:44:59;;;;;;;2.42;1.45;;;;;;;6.17;100.00;100859.50;5094381;27;98868;-27
2023/12/12 02:47:25;;;;;;;1.80;1.30;;;;;;;6.15;100.00;100858.72;5094652;27;96485;-28
2023/12/12 02:49:50;;;;;;;1.40;1.17;;;;;;;6.10;100.00;100856.22;5094393;27;96790;-27
2023/12/12 02:52:16;;;;;;;1.83;1.35;;;;;;;6.05;100.00;100847.44;5094572;27;98038;-27
2023/12/12 02:54:41;;;;;;;1.90;1.42;;;;;;;6.04;100.00;100842.16;5075677;27;100630;-27
2023/12/12 02:57:07;;;;;;;2.80;1.15;;;;;;;6.03;100.00;100843.97;5094131;27;96783;-27
2023/12/12 02:59:32;;;;;;;1.90;1.58;;;;;;;6.03;100.00;100856.50;5094931;27;96769;-27
2023/12/12 03:01:58;;;;;;;1.75;1.35;;;;;;;5.98;100.00;100842.41;5094020;27;99339;-27
2023/12/12 03:04:23;;;;;;;1.70;1.23;;;;;;;5.98;100.00;100850.47;5093966;27;105863;-26
2023/12/12 03:06:48;;;;;;;0.90;0.80;;;;;;;5.98;100.00;100848.66;5093686;27;96774;-27
2023/12/12 03:09:14;;;;;;;1.45;1.10;;;;;;;5.98;100.00;100862.09;5094560;27;96832;-27
2023/12/12 03:11:39;;;;;;;3.95;1.38;;;;;;;5.97;100.00;100851.41;5075197;27;107000;-27
2023/12/12 03:14:04;;;;;;;1.17;0.93;;;;;;;5.92;100.00;100841.69;5093945;27;99097;-26
2023/12/12 03:16:29;;;;;;;1.95;1.73;;;;;;;5.94;100.00;100839.84;5094296;27;96548;-28
2023/12/12 03:18:55;;;;;;;3.53;1.08;;;;;;;5.88;100.00;100840.06;5093847;27;97165;-27
2023/12/12 03:21:20;;;;;;;3.05;1.38;;;;;;;5.87;100.00;100838.31;5093354;27;107674;-27
2023/12/12 03:23:48;;;;;;;2.10;1.17;;;;;;;5.91;100.00;100844.44;5094498;27;102469;-26
2023/12/12 03:26:14;;;;;;;1.83;1.17;;;;;;;5.85;100.00;100831.28;5094419;27;96655;-27
2023/12/12 03:28:39;;;;;;;1.90;0.90;;;;;;;5.91;100.00;100844.44;5093309;27;96920;-27
2023/12/12 03:31:05;;;;;;;1.92;0.98;;;;;;;5.89;100.00;100835.59;5093407;27;98017;-26
2023/12/12 03:33:30;;;;;;;1.35;0.98;;;;;;;5.90;100.00;100831.94;5093553;27;97919;-27
2023/12/12 03:35:56;;;;;;;5.57;1.33;;;;;;;5.90;100.00;100821.19;5093821;27;96529;-27
2023/12/12 03:38:21;;;;;;;1.42;1.08;;;;;;;5.91;100.00;100831.88;5094099;27;96793;-27
2023/12/12 03:40:46;;;;;;;1.90;1.05;;;;;;;5.92;100.00;100835.44;5093859;27;97441;-29
2023/12/12 03:43:12;;;;;;;1.38;0.85;;;;;;;5.92;100.00;100830.94;5093740;27;96544;-27
2023/12/12 03:45:38;;;;;;;1.63;1.27;;;;;;;5.89;100.00;100822.16;5094021;27;96836;-27
2023/12/12 03:48:03;;;;;;;3.30;1.00;;;;;;;5.89;100.00;100814.94;5075390;27;96799;-27
2023/12/12 03:50:29;;;;;;;3.22;1.95;;;;;;;5.94;100.00;100826.41;5093536;27;97869;-27
2023/12/12 03:52:54;;;;;;;1.77;1.42;;;;;;;5.95;100.00;100822.75;5093360;27;99221;-27
2023/12/12 03:55:20;;;;;;;1.45;1.25;;;;;;;5.90;100.00;100810.44;5092614;27;96869;-27
2023/12/12 03:57:46;;;;;;;4.93;1.73;;;;;;;5.97;100.00;100809.28;5075018;27;96832;-27
2023/12/12 04:00:12;;;;;;;1.95;1.70;;;;;;;6.01;100.00;100799.28;5093550;27;100581;-27
2023/12/12 04:02:37;;;;;;;2.50;1.52;;;;;;;6.03;100.00;100792.00;5074345;27;101934;-27
2023/12/12 04:05:03;;;;;;;3.63;1.45;;;;;;;6.06;100.00;100784.69;5093536;27;96646;-27
2023/12/12 04:07:28;;;;;;;1.90;1.63;;;;;;;6.05;100.00;100780.22;5093670;27;96823;-27
2023/12/12 04:09:54;;;;;;;2.63;1.55;;;;;;;6.05;100.00;100776.66;5074699;27;101422;-28
2023/12/12 04:12:19;;;;;;;11.70;1.40;;;;;;;6.11;100.00;100782.66;5093715;27;97359;-27
2023/12/12 04:14:45;;;;;;;3.75;1.88;;;;;;;6.09;100.00;100764.84;5093665;27;96867;-28
2023/12/12 04:17:11;;;;;;;1.25;1.02;;;;;;;6.13;100.00;100769.16;5074818;27;96883;-27
2023/12/12 04:19:37;;;;;;;1.83;1.02;;;;;;;6.14;100.00;100755.63;5092549;27;98985;-27
2023/12/12 04:22:02;;;;;;;2.35;1.63;;;;;;;6.14;100.00;100746.69;5092853;27;99327;-27
2023/12/12 04:24:27;;;;;;;1.27;1.17;;;;;;;6.16;100.00;100747.50;5093702;27;96703;-29
2023/12/12 04:26:53;;;;;;;2.47;1.50;;;;;;;6.15;100.00;100752.00;5093132;27;96836;-27
2023/12/12 04:29:18;;;;;;;4.22;2.10;;;;;;;6.19;100.00;100754.53;5092641;27;103377;-27
2023/12/12 04:31:43;;;;;;;2.85;1.50;;;;;;;6.19;100.00;100760.78;5093071;27;97781;-28
2023/12/12 04:34:09;;;;;;;3.55;1.73;;;;;;;6.22;100.00;100765.16;5093431;27;96514;-27
2023/12/12 04:36:35;;;;;;;2.00;1.45;;;;;;;6.20;100.00;100756.28;5074923;27;96796;-27
2023/12/12 04:39:00;;;;;;;1.88;1.08;;;;;;;6.20;100.00;100753.59;5094093;27;97944;-27
2023/12/12 04:41:25;;;;;;;3.97;1.67;;;;;;;6.22;100.00;100755.28;5096576;27;97520;-27
2023/12/12 04:43:51;;;;;;;1.40;1.05;;;;;;;6.15;100.00;100745.75;5096446;27;96528;-27
2023/12/12 04:46:20;;;;;;;2.15;1.52;;;;;;;6.18;100.00;100747.44;5096310;27;96816;-27
2023/12/12 04:48:46;;;;;;;3.25;1.33;;;;;;;6.22;100.00;100757.09;5096361;27;99372;-27
2023/12/12 04:51:11;;;;;;;2.38;1.65;;;;;;;6.17;100.00;100741.16;5077459;27;100817;-27
2023/12/12 04:53:36;;;;;;;1.80;1.65;;;;;;;6.18;100.00;100751.00;5096403;27;96756;-29
2023/12/12 04:56:02;;;;;;;6.57;2.05;;;;;;;6.15;100.00;100743.06;5096158;27;96868;-27
2023/12/12 04:58:27;;;;;;;3.65;1.33;;;;;;;6.18;100.00;100742.06;5096308;27;99632;-27
2023/12/12 05:00:53;;;;;;;1.95;1.05;;;;;;;6.19;100.00;100741.09;5096697;27;97251;-27
2023/12/12 05:03:18;;;;;;;5.93;1.85;;;;;;;6.21;100.00;100748.16;5096187;27;96477;-27
2023/12/12 05:05:44;;;;;;;1.75;1.35;;;;;;;6.22;100.00;100747.22;5096478;27;96788;-27
2023/12/12 05:08:10;;;;;;;2.75;1.40;;;;;;;6.21;100.00;100748.16;5095722;27;97960;-27
2023/12/12 05:10:35;;;;;;;3.63;1.45;;;;;;;6.24;100.00;100758.75;5096376;27;97390;-26
2023/12/12 05:13:01;;;;;;;3.67;1.85;;;;;;;6.18;100.00;100742.91;5096306;27;96455;-27
2023/12/12 05:15:28;;;;;;;2.40;1.45;;;;;;;6.21;100.00;100737.41;5077352;27;96896;-27
2023/12/12 05:17:53;;;;;;;6.35;2.05;;;;;;;6.23;100.00;100740.88;5077400;27;101025;-26
2023/12/12 05:20:19;;;;;;;3.92;1.98;;;;;;;6.26;100.00;100737.19;5096151;27;97804;-27
2023/12/12 05:22:44;;;;;;;3.88;1.35;;;;;;;6.26;100.00;100734.50;5096088;27;96472;-27
2023/12/12 05:25:09;;;;;;;2.83;1.67;;;;;;;6.28;100.00;100736.19;5096458;27;96825;-27
2023/12/12 05:27:35;;;;;;;4.95;1.75;;;;;;;6.30;100.00;100739.66;5095914;27;97976;-26
2023/12/12 05:30:00;;;;;;;2.08;1.48;;;;;;;6.32;100.00;100735.09;5095693;27;97814;-27
2023/12/12 05:32:25;;;;;;;3.35;1.70;;;;;;;6.33;100.00;100728.75;5095513;27;96688;-27
2023/12/12 05:34:51;;;;;;;2.78;1.67;;;;;;;6.34;100.00;100730.53;5095772;27;96626;-27
2023/12/12 05:37:16;;;;;;;1.88;1.27;;;;;;;6.31;100.00;100730.66;5095698;27;99978;-27
2023/12/12 05:39:42;;;;;;;5.45;1.48;;;;;;;6.37;100.00;100734.88;5095667;27;97886;-29
2023/12/12 05:42:07;;;;;;;5.05;1.45;;;;;;;6.37;100.00;100726.81;5096011;27;96515;-27
2023/12/12 05:44:32;;;;;;;2.17;1.30;;;;;;;6.42;100.00;100732.00;5077045;27;96917;-27
2023/12/12 05:46:58;;;;;;;1.58;1.05;;;;;;;6.40;100.00;100717.72;5095491;27;99612;-27
2023/12/12 05:49:23;;;;;;;2.47;1.80;;;;;;;6.45;100.00;100724.63;5095632;27;98726;-27
2023/12/12 05:51:49;;;;;;;1.67;1.08;;;;;;;6.42;100.00;100713.16;5095008;27;96524;-26
2023/12/12 05:54:14;;;;;;;2.08;1.25;;;;;;;6.47;100.00;100719.19;5095761;27;96747;-27
2023/12/12 05:56:45;;;;;;;2.05;1.27;;;;;;;6.49;100.00;100715.47;5094724;27;97897;-28
2023/12/12 05:59:14;;;;;;;1.42;1.00;;;;;;;6.52;100.00;100711.78;5076517;27;100788;-27
2023/12/12 06:01:39;;;;;;;3.05;1.77;;;;;;;6.53;100.00;100713.50;5076774;27;96602;-27
2023/12/12 06:04:07;;;;;;;7.90;1.65;;;;;;;6.46;100.00;100701.28;5095199;27;96968;-27
2023/12/12 06:06:32;;;;;;;5.57;1.38;;;;;;;6.51;100.00;100696.59;5076609;27;98970;-27
2023/12/12 06:08:57;;;;;;;1.85;1.48;;;;;;;6.56;100.00;100708.00;5095390;27;97807;-27
2023/12/12 06:11:24;;;;;;;2.00;1.63;;;;;;;6.54;100.00;100700.00;5095257;27;96450;-27
2023/12/12 06:13:49;;;;;;;6.82;1.67;;;;;;;6.61;100.00;100713.16;5095561;27;96773;-27
2023/12/12 06:16:14;;;;;;;2.42;1.00;;;;;;;6.59;100.00;100703.34;5094889;27;99389;-27
2023/12/12 06:18:40;;;;;;;2.17;1.90;;;;;;;6.60;100.00;100704.19;5095201;27;97780;-27
2023/12/12 06:21:05;;;;;;;2.97;0.98;;;;;;;6.61;100.00;100694.34;5094516;27;96481;-27
2023/12/12 06:23:30;;;;;;;4.88;1.15;;;;;;;6.63;100.00;100693.31;5095425;27;96913;-27
2023/12/12 06:25:56;;;;;;;2.38;1.83;;;;;;;6.67;100.00;100700.25;5094810;27;102761;-27
2023/12/12 06:28:21;;;;;;;3.05;1.85;;;;;;;6.70;100.00;100689.38;5094230;27;100018;-27
2023/12/12 06:30:47;;;;;;;1.33;0.88;;;;;;;6.72;100.00;100692.88;5095077;27;96514;-27
2023/12/12 06:33:12;;;;;;;4.53;1.77;;;;;;;6.76;100.00;100686.38;5095118;27;96872;-27
2023/12/12 06:35:37;;;;;;;1.58;1.30;;;;;;;6.77;100.00;100684.56;5094848;27;97883;-27
2023/12/12 06:38:04;;;;;;;1.35;0.93;;;;;;;6.77;100.00;100676.50;5095320;27;97742;-27
2023/12/12 06:40:30;;;;;;;0.82;0.57;;;;;;;6.74;100.00;100657.78;5076350;27;96711;-28
2023/12/12 06:42:55;;;;;;;2.45;1.63;;;;;;;6.78;100.00;100665.63;5094677;27;96796;-27
2023/12/12 06:45:20;;;;;;;3.00;1.83;;;;;;;6.77;100.00;100658.53;5094012;27;103156;-28
2023/12/12 06:47:46;;;;;;;3.17;1.80;;;;;;;6.83;100.00;100664.56;5094583;27;99522;-27
2023/12/12 06:50:11;;;;;;;4.78;2.05;;;;;;;6.82;100.00;100652.91;5094558;27;96511;-27
2023/12/12 06:52:37;;;;;;;6.40;1.73;;;;;;;6.86;100.00;100648.22;5094820;27;96883;-27
2023/12/12 06:55:03;;;;;;;1.77;1.17;;;;;;;6.88;100.00;100660.66;5094300;27;99203;-27
2023/12/12 06:57:28;;;;;;;5.07;2.20;;;;;;;6.89;100.00;100661.53;5093968;27;99535;-27
2023/12/12 06:59:54;;;;;;;5.35;2.20;;;;;;;6.93;100.00;100660.44;5094472;27;96599;-27
2023/12/12 07:02:19;;;;;;;1.33;0.80;;;;;;;6.95;100.00;100658.56;5076249;27;96826;-28
2023/12/12 07:04:45;;;;;;;2.70;1.65;;;;;;;6.98;100.00;100650.31;5094348;27;97421;-28
2023/12/12 07:07:11;;;;;;;3.22;1.10;;;;;;;6.95;100.00;100645.09;5094209;27;98784;-27
2023/12/12 07:09:37;;;;;;;1.85;1.17;;;;;;;6.96;100.00;100638.75;5075171;27;96690;-27
2023/12/12 07:12:04;;;;;;;4.30;1.67;;;;;;;6.95;100.00;100642.41;5094230;27;96828;-27
2023/12/12 07:14:29;;;;;;;1.50;1.00;;;;;;;7.01;100.00;100634.03;5075572;27;101902;-28
2023/12/12 07:16:54;;;;;;;1.15;0.80;;;;;;;6.98;100.00;100623.38;5094221;27;97753;-28
2023/12/12 07:19:20;;;;;;;2.42;1.52;;;;;;;6.98;100.00;100629.66;5094663;27;96650;-29
2023/12/12 07:21:45;;;;;;;2.13;1.08;;;;;;;6.98;100.00;100623.38;5093961;27;96840;-28
2023/12/12 07:24:14;;;;;;;1.90;1.17;;;;;;;7.00;100.00;100627.75;5093952;27;99198;-27
2023/12/12 07:26:43;;;;;;;2.53;1.65;;;;;;;7.00;100.00;100627.75;5093740;27;99180;-27
2023/12/12 07:29:08;;;;;;;1.02;0.90;;;;;;;7.00;100.00;100624.19;5075459;27;96538;-27
2023/12/12 07:31:34;;;;;;;2.60;1.35;;;;;;;7.02;100.00;100624.97;5093937;27;98611;-27
2023/12/12 07:33:59;;;;;;;1.25;0.95;;;;;;;7.01;100.00;100617.88;5093273;27;99253;-27
2023/12/12 07:36:24;;;;;;;2.28;1.10;;;;;;;6.98;100.00;100599.16;5093991;27;102713;-27
2023/12/12 07:38:51;;;;;;;2.17;1.23;;;;;;;7.03;100.00;100607.88;5094063;27;96591;-27
2023/12/12 07:41:16;;;;;;;8.87;1.83;;;;;;;7.01;100.00;100607.09;5075092;27;96763;-27
2023/12/12 07:43:42;;;;;;;5.70;1.52;;;;;;;7.06;100.00;100605.03;5093522;27;99272;-27
2023/12/12 07:46:07;;;;;;;3.40;1.52;;;;;;;7.00;100.00;100594.56;5093727;27;97237;-27
2023/12/12 07:48:32;;;;;;;9.40;1.98;;;;;;;7.05;100.00;100597.88;5093842;27;96509;-27
2023/12/12 07:50:58;;;;;;;3.70;2.00;;;;;;;7.06;100.00;100599.66;5094045;27;96962;-27
2023/12/12 07:53:23;;;;;;;3.60;1.85;;;;;;;7.07;100.00;100595.13;5093505;27;98880;-27
2023/12/12 07:55:49;;;;;;;1.27;1.05;;;;;;;7.10;100.00;100600.34;5092947;27;99273;-27
2023/12/12 07:58:14;;;;;;;4.55;0.90;;;;;;;7.11;100.00;100602.97;5093091;27;96528;-27
2023/12/12 08:00:39;;;;;;;2.40;1.30;;;;;;;7.13;100.00;100611.84;5093746;27;96779;-28
2023/12/12 08:03:05;;;;;;;5.93;1.35;;;;;;;7.10;100.00;100590.44;5093555;27;97481;-27
2023/12/12 08:05:31;;;;;;;4.45;1.77;;;;;;;7.13;100.00;100595.69;5074692;27;100320;-27
2023/12/12 08:07:56;;;;;;;2.17;1.08;;;;;;;7.11;100.00;100591.34;5093536;27;96673;-28
2023/12/12 08:10:21;;;;;;;12.35;1.48;;;;;;;7.19;100.00;100591.81;5093570;27;96763;-27
2023/12/12 08:12:48;;;;;;;6.10;2.42;;;;;;;7.19;100.00;100584.59;5093211;27;98064;-27
2023/12/12 08:15:13;;;;;;;3.15;2.33;;;;;;;7.16;100.00;100573.97;5080878;27;101157;-27
2023/12/12 08:17:39;;;;;;;2.15;1.38;;;;;;;7.23;100.00;100586.19;5100403;27;96763;-26
2023/12/12 08:20:05;;;;;;;1.65;1.25;;;;;;;7.25;100.00;100579.84;5100180;27;96817;-28
2023/12/12 08:22:30;;;;;;;3.40;1.58;;;;;;;7.29;100.00;100579.59;5080787;27;102505;-27
2023/12/12 08:24:56;;;;;;;2.97;1.27;;;;;;;7.32;100.00;100570.50;5100078;27;98400;-27
2023/12/12 08:27:21;;;;;;;3.40;1.08;;;;;;;7.34;100.00;100571.25;5100041;27;96908;-28
2023/12/12 08:29:49;;;;;;;2.67;0.93;;;;;;;7.31;100.00;100558.84;5100417;27;96815;-27
2023/12/12 08:32:15;;;;;;;3.22;1.15;;;;;;;7.34;100.00;100547.91;5099831;27;97957;-27
2023/12/12 08:34:41;;;;;;;0.45;0.45;;;;;;;7.42;100.00;100548.38;5081414;27;100772;-27
2023/12/12 08:37:06;;;;;;;4.63;1.15;;;;;;;7.42;100.00;100548.38;5099953;27;98712;-27
2023/12/12 08:39:31;;;;;;;2.25;1.15;;;;;;;7.53;100.00;100544.22;5100254;27;96832;-27
2023/12/12 08:41:57;;;;;;;2.30;1.25;;;;;;;7.53;100.00;100520.84;5099718;27;102491;-27
2023/12/12 08:44:23;;;;;;;3.03;1.23;;;;;;;7.58;100.00;100534.06;5099980;27;97764;-27
2023/12/12 08:46:49;;;;;;;3.35;0.60;;;;;;;7.57;100.00;100532.31;5080754;27;97023;-27
2023/12/12 08:49:17;;;;;;;6.68;1.77;;;;;;;7.61;100.00;100528.50;5099996;27;96505;-27
2023/12/12 08:51:42;;;;;;;7.18;1.38;;;;;;;7.65;100.00;100538.16;5080945;27;100826;-27
2023/12/12 08:54:08;;;;;;;3.22;1.60;;;;;;;7.67;100.00;100530.84;5099541;27;97313;-27
2023/12/12 08:56:33;;;;;;;2.05;1.25;;;;;;;7.66;100.00;100540.78;5099297;27;98915;-26
2023/12/12 08:58:58;;;;;;;1.95;1.45;;;;;;;7.63;100.00;100540.94;5099596;27;96864;-26
2023/12/12 09:01:24;;;;;;;0.98;0.80;;;;;;;7.68;100.00;100548.78;5099938;27;97341;-27
2023/12/12 09:03:50;;;;;;;3.03;1.30;;;;;;;7.68;100.00;100545.22;5100469;27;96651;-27
2023/12/12 09:06:16;;;;;;;2.13;1.50;;;;;;;7.61;100.00;100526.69;5099634;27;96450;-27
2023/12/12 09:08:42;;;;;;;2.97;1.02;;;;;;;7.64;100.00;100525.66;5099360;27;96950;-28
2023/12/12 09:11:11;;;;;;;0.47;0.47;;;;;;;7.70;100.00;100525.31;5098907;27;98012;-26
2023/12/12 09:13:36;;;;;;;1.88;1.00;;;;;;;7.70;100.00;100521.72;5099673;27;98092;-27
2023/12/12 09:16:02;;;;;;;1.85;1.15;;;;;;;7.74;100.00;100517.91;5080874;27;96715;-27
2023/12/12 09:18:27;;;;;;;6.10;1.52;;;;;;;7.75;100.00;100509.75;5099753;27;96758;-26
2023/12/12 09:20:53;;;;;;;2.30;1.10;;;;;;;7.75;100.00;100498.97;5099475;27;97557;-27
2023/12/12 09:23:18;;;;;;;2.55;0.90;;;;;;;7.79;100.00;100491.56;5099065;27;99082;-27
2023/12/12 09:25:44;;;;;;;2.88;1.33;;;;;;;7.87;100.00;100498.28;5096369;27;96533;-27
2023/12/12 09:28:09;;;;;;;3.35;1.70;;;;;;;7.90;100.00;100486.44;5096264;27;96879;-27
2023/12/12 09:30:34;;;;;;;3.15;1.38;;;;;;;7.91;100.00;100484.63;5095596;27;99273;-27
2023/12/12 09:33:00;;;;;;;1.23;0.77;;;;;;;7.95;100.00;100489.75;5095882;27;101072;-27
2023/12/12 09:35:25;;;;;;;1.30;0.82;;;;;;;7.93;100.00;100471.94;5095191;27;102713;-27
2023/12/12 09:37:51;;;;;;;4.60;1.45;;;;;;;8.00;100.00;100484.09;5095910;27;96789;-28
2023/12/12 09:40:16;;;;;;;3.83;1.05;;;;;;;8.03;100.00;100478.53;5077117;27;100876;-27
2023/12/12 09:42:42;;;;;;;5.05;1.55;;;;;;;8.01;100.00;100458.88;5076832;27;100679;-27
2023/12/12 09:45:14;;;;;;;6.53;2.08;;;;;;;8.05;100.00;100466.69;5095723;27;96739;-27
2023/12/12 09:47:42;;;;;;;2.65;1.17;;;;;;;8.08;100.00;100462.97;5095564;27;96658;-27
2023/12/12 09:50:10;;;;;;;0.35;0.35;;;;;;;8.09;100.00;100448.50;5076608;27;101505;-27
2023/12/12 09:52:36;;;;;;;1.63;0.95;;;;;;;8.13;100.00;100444.69;5076885;27;100682;-27
2023/12/12 09:55:03;;;;;;;2.95;1.05;;;;;;;8.16;100.00;100443.66;5077018;27;96792;-28
2023/12/12 09:57:29;;;;;;;3.85;0.93;;;;;;;8.18;100.00;100444.44;5076812;27;96939;-28
2023/12/12 09:59:55;;;;;;;2.20;1.05;;;;;;;8.26;100.00;100452.94;5076324;27;101460;-27
2023/12/12 10:02:26;;;;;;;4.32;1.48;;;;;;;8.29;100.00;100436.56;5095135;27;99306;-28
2023/12/12 10:04:52;;;;;;;0.90;0.73;;;;;;;8.28;100.00;100424.03;5076961;27;96581;-27
2023/12/12 10:07:18;;;;;;;3.42;1.23;;;;;;;8.33;100.00;100430.03;5076529;27;96877;-27
2023/12/12 10:09:44;;;;;;;2.65;1.25;;;;;;;8.33;100.00;100424.63;5076550;27;101187;-27
2023/12/12 10:12:10;;;;;;;2.85;1.08;;;;;;;8.41;100.00;100430.47;5095236;27;97203;-28
2023/12/12 10:14:37;;;;;;;2.00;0.93;;;;;;;8.43;100.00;100425.84;5095439;27;96636;-27
2023/12/12 10:17:04;;;;;;;1.23;0.90;;;;;;;8.44;100.00;100422.19;5076885;27;97002;-26
2023/12/12 10:19:30;;;;;;;4.85;1.75;;;;;;;8.48;100.00;100412.94;5076354;27;101587;-27
2023/12/12 10:21:55;;;;;;;3.00;1.17;;;;;;;8.46;100.00;100405.91;5095177;27;97276;-27
2023/12/12 10:24:26;;;;;;;4.47;1.75;;;;;;;8.53;100.00;100404.56;5095046;27;96653;-27
2023/12/12 10:26:52;;;;;;;3.45;1.85;;;;;;;8.54;100.00;100400.91;5076312;27;97185;-28
2023/12/12 10:29:19;;;;;;;5.25;1.70;;;;;;;8.55;100.00;100404.47;5095115;27;97973;-28
2023/12/12 10:31:46;;;;;;;1.90;1.25;;;;;;;8.55;100.00;100399.94;5094886;27;97316;-27
2023/12/12 10:34:12;;;;;;;4.47;2.10;;;;;;;8.56;100.00;100390.03;5076105;27;96733;-27
2023/12/12 10:36:41;;;;;;;2.85;1.95;;;;;;;8.63;100.00;100396.81;5094791;27;96770;-29
2023/12/12 10:39:12;;;;;;;4.20;2.38;;;;;;;8.61;100.00;100387.94;5094746;27;97517;-28
2023/12/12 10:41:37;;;;;;;1.55;1.27;;;;;;;8.65;100.00;100378.66;5076525;27;100941;-27
2023/12/12 10:44:05;;;;;;;1.80;1.40;;;;;;;8.62;100.00;100376.16;5094731;27;96606;-27
2023/12/12 10:46:36;;;;;;;3.22;1.30;;;;;;;8.65;100.00;100374.16;5076111;27;96845;-27
2023/12/12 10:49:02;;;;;;;1.38;0.80;;;;;;;8.69;100.00;100358.63;5075427;27;99061;-27
2023/12/12 10:51:28;;;;;;;2.13;1.25;;;;;;;8.72;100.00;100363.81;5094576;27;97616;-27
2023/12/12 10:53:55;;;;;;;4.25;1.85;;;;;;;8.71;100.00;100360.25;5094783;27;96595;-28
2023/12/12 10:56:21;;;;;;;5.63;1.67;;;;;;;8.75;100.00;100358.25;5075630;27;96879;-28
2023/12/12 10:58:48;;;;;;;7.25;1.75;;;;;;;8.79;100.00;100359.78;5075821;27;100776;-27
2023/12/12 11:01:15;;;;;;;3.55;1.83;;;;;;;8.79;100.00;100346.28;5075574;27;101099;-27
2023/12/12 11:03:41;;;;;;;3.55;2.25;;;;;;;8.80;100.00;100337.22;5094184;27;96585;-28
2023/12/12 11:06:08;;;;;;;2.55;1.88;;;;;;;8.85;100.00;100329.69;5094834;27;96785;-27
2023/12/12 11:08:34;;;;;;;2.33;1.55;;;;;;;8.83;100.00;100317.25;5075725;27;101119;-27
2023/12/12 11:11:02;;;;;;;4.13;2.20;;;;;;;8.83;100.00;100311.84;5075690;27;99116;-29
2023/12/12 11:13:33;;;;;;;5.75;1.92;;;;;;;8.89;100.00;100317.75;5075298;27;96950;-27
2023/12/12 11:16:00;;;;;;;5.03;2.50;;;;;;;8.90;100.00;100324.88;5094181;27;96746;-27
2023/12/12 11:18:26;;;;;;;6.53;2.13;;;;;;;8.93;100.00;100313.84;5075556;27;99133;-27